sensor_id;sensor_type;location;lat;lon;timestamp;P1;durP1;ratioP1;P2;durP2;ratioP2
19343;SDS011;9808;52.402;16.678;2023-06-10T00:00:07;14.85;;;8.10;;
19343;SDS011;9808;52.402;16.678;2023-06-10T00:02:44;22.52;;;8.25;;
19343;SDS011;9808;52.402;16.678;2023-06-10T00:05:17;12.65;;;8.27;;
19343;SDS011;9808;52.402;16.678;2023-06-10T00:07:47;15.68;;;8.80;;
19343;SDS011;9808;52.402;16.678;2023-06-10T00:10:16;17.92;;;8.05;;
19343;SDS011;9808;52.402;16.678;2023-06-10T00:12:44;21.88;;;9.07;;
19343;SDS011;9808;52.402;16.678;2023-06-10T00:15:13;14.80;;;8.07;;
19343;SDS011;9808;52.402;16.678;2023-06-10T00:17:43;12.00;;;8.50;;
19343;SDS011;9808;52.402;16.678;2023-06-10T00:20:12;16.75;;;8.57;;
19343;SDS011;9808;52.402;16.678;2023-06-10T00:22:39;12.35;;;7.90;;
19343;SDS011;9808;52.402;16.678;2023-06-10T00:25:08;14.55;;;8.45;;
19343;SDS011;9808;52.402;16.678;2023-06-10T00:27:37;16.73;;;8.50;;
19343;SDS011;9808;52.402;16.678;2023-06-10T00:30:05;16.13;;;8.35;;
19343;SDS011;9808;52.402;16.678;2023-06-10T00:32:34;11.68;;;8.13;;
19343;SDS011;9808;52.402;16.678;2023-06-10T00:35:02;13.40;;;8.13;;
19343;SDS011;9808;52.402;16.678;2023-06-10T00:37:30;14.95;;;8.40;;
19343;SDS011;9808;52.402;16.678;2023-06-10T00:39:58;15.15;;;8.27;;
19343;SDS011;9808;52.402;16.678;2023-06-10T00:42:25;18.27;;;8.88;;
19343;SDS011;9808;52.402;16.678;2023-06-10T00:44:54;13.48;;;8.13;;
19343;SDS011;9808;52.402;16.678;2023-06-10T00:47:21;11.13;;;8.00;;
19343;SDS011;9808;52.402;16.678;2023-06-10T00:49:52;12.85;;;8.13;;
19343;SDS011;9808;52.402;16.678;2023-06-10T00:52:19;11.02;;;7.18;;
19343;SDS011;9808;52.402;16.678;2023-06-10T00:54:46;17.15;;;8.57;;
19343;SDS011;9808;52.402;16.678;2023-06-10T00:57:14;14.15;;;8.30;;
19343;SDS011;9808;52.402;16.678;2023-06-10T00:59:46;18.35;;;9.13;;
19343;SDS011;9808;52.402;16.678;2023-06-10T01:02:14;15.82;;;7.85;;
19343;SDS011;9808;52.402;16.678;2023-06-10T01:04:41;16.85;;;8.38;;
19343;SDS011;9808;52.402;16.678;2023-06-10T01:07:26;17.50;;;8.25;;
19343;SDS011;9808;52.402;16.678;2023-06-10T01:09:57;15.68;;;7.88;;
19343;SDS011;9808;52.402;16.678;2023-06-10T01:12:29;12.75;;;8.27;;
19343;SDS011;9808;52.402;16.678;2023-06-10T01:14:59;11.82;;;8.13;;
19343;SDS011;9808;52.402;16.678;2023-06-10T01:17:28;13.77;;;7.38;;
19343;SDS011;9808;52.402;16.678;2023-06-10T01:19:57;13.25;;;7.85;;
19343;SDS011;9808;52.402;16.678;2023-06-10T01:22:25;13.48;;;7.80;;
19343;SDS011;9808;52.402;16.678;2023-06-10T01:24:59;16.20;;;7.45;;
19343;SDS011;9808;52.402;16.678;2023-06-10T01:27:35;13.80;;;7.93;;
19343;SDS011;9808;52.402;16.678;2023-06-10T01:30:08;13.30;;;7.72;;
19343;SDS011;9808;52.402;16.678;2023-06-10T01:32:38;15.10;;;7.50;;
19343;SDS011;9808;52.402;16.678;2023-06-10T01:35:07;14.38;;;8.00;;
19343;SDS011;9808;52.402;16.678;2023-06-10T01:37:35;13.20;;;7.88;;
19343;SDS011;9808;52.402;16.678;2023-06-10T01:40:04;12.70;;;7.43;;
19343;SDS011;9808;52.402;16.678;2023-06-10T01:42:34;12.30;;;7.68;;
19343;SDS011;9808;52.402;16.678;2023-06-10T01:45:01;16.65;;;7.90;;
19343;SDS011;9808;52.402;16.678;2023-06-10T01:47:34;11.73;;;7.82;;
19343;SDS011;9808;52.402;16.678;2023-06-10T01:50:01;17.92;;;8.07;;
19343;SDS011;9808;52.402;16.678;2023-06-10T01:52:30;13.32;;;7.75;;
19343;SDS011;9808;52.402;16.678;2023-06-10T01:54:57;16.73;;;7.68;;
19343;SDS011;9808;52.402;16.678;2023-06-10T01:57:24;11.95;;;7.50;;
19343;SDS011;9808;52.402;16.678;2023-06-10T01:59:52;17.40;;;7.75;;
19343;SDS011;9808;52.402;16.678;2023-06-10T02:02:19;13.68;;;7.55;;
19343;SDS011;9808;52.402;16.678;2023-06-10T02:04:48;17.02;;;6.80;;
19343;SDS011;9808;52.402;16.678;2023-06-10T02:07:21;11.88;;;7.40;;
19343;SDS011;9808;52.402;16.678;2023-06-10T02:09:48;16.08;;;7.22;;
19343;SDS011;9808;52.402;16.678;2023-06-10T02:12:15;11.65;;;6.95;;
19343;SDS011;9808;52.402;16.678;2023-06-10T02:14:46;15.68;;;7.15;;
19343;SDS011;9808;52.402;16.678;2023-06-10T02:17:13;18.13;;;6.82;;
19343;SDS011;9808;52.402;16.678;2023-06-10T02:19:41;10.45;;;6.60;;
19343;SDS011;9808;52.402;16.678;2023-06-10T02:22:09;12.02;;;7.20;;
19343;SDS011;9808;52.402;16.678;2023-06-10T02:24:36;17.23;;;7.18;;
19343;SDS011;9808;52.402;16.678;2023-06-10T02:27:04;11.40;;;6.68;;
19343;SDS011;9808;52.402;16.678;2023-06-10T02:29:35;16.45;;;7.10;;
19343;SDS011;9808;52.402;16.678;2023-06-10T02:32:03;12.23;;;6.68;;
19343;SDS011;9808;52.402;16.678;2023-06-10T02:34:32;12.93;;;6.60;;
19343;SDS011;9808;52.402;16.678;2023-06-10T02:37:03;13.15;;;7.15;;
19343;SDS011;9808;52.402;16.678;2023-06-10T02:39:30;12.68;;;7.25;;
19343;SDS011;9808;52.402;16.678;2023-06-10T02:41:57;11.95;;;6.97;;
19343;SDS011;9808;52.402;16.678;2023-06-10T02:44:25;14.88;;;7.05;;
19343;SDS011;9808;52.402;16.678;2023-06-10T02:46:55;13.77;;;7.20;;
19343;SDS011;9808;52.402;16.678;2023-06-10T02:49:22;16.15;;;7.07;;
19343;SDS011;9808;52.402;16.678;2023-06-10T02:51:50;13.35;;;7.15;;
19343;SDS011;9808;52.402;16.678;2023-06-10T02:54:20;17.65;;;7.32;;
19343;SDS011;9808;52.402;16.678;2023-06-10T02:56:47;13.75;;;6.68;;
19343;SDS011;9808;52.402;16.678;2023-06-10T02:59:15;12.75;;;7.43;;
19343;SDS011;9808;52.402;16.678;2023-06-10T03:01:42;14.65;;;6.90;;
19343;SDS011;9808;52.402;16.678;2023-06-10T03:04:09;15.98;;;7.22;;
19343;SDS011;9808;52.402;16.678;2023-06-10T03:06:40;23.90;;;7.35;;
19343;SDS011;9808;52.402;16.678;2023-06-10T03:09:07;13.75;;;7.47;;
19343;SDS011;9808;52.402;16.678;2023-06-10T03:11:34;11.18;;;6.30;;
19343;SDS011;9808;52.402;16.678;2023-06-10T03:14:02;14.85;;;6.35;;
19343;SDS011;9808;52.402;16.678;2023-06-10T03:16:29;14.15;;;7.10;;
19343;SDS011;9808;52.402;16.678;2023-06-10T03:18:57;17.25;;;7.00;;
19343;SDS011;9808;52.402;16.678;2023-06-10T03:21:25;10.68;;;6.45;;
19343;SDS011;9808;52.402;16.678;2023-06-10T03:23:53;15.60;;;7.25;;
19343;SDS011;9808;52.402;16.678;2023-06-10T03:26:23;12.90;;;6.57;;
19343;SDS011;9808;52.402;16.678;2023-06-10T03:28:52;12.88;;;6.80;;
19343;SDS011;9808;52.402;16.678;2023-06-10T03:31:19;9.45;;;6.35;;
19343;SDS011;9808;52.402;16.678;2023-06-10T03:33:46;11.07;;;6.70;;
19343;SDS011;9808;52.402;16.678;2023-06-10T03:36:14;14.68;;;6.70;;
19343;SDS011;9808;52.402;16.678;2023-06-10T03:38:42;13.27;;;6.72;;
19343;SDS011;9808;52.402;16.678;2023-06-10T03:41:09;14.77;;;6.88;;
19343;SDS011;9808;52.402;16.678;2023-06-10T03:43:37;15.80;;;7.18;;
19343;SDS011;9808;52.402;16.678;2023-06-10T03:46:06;10.13;;;6.55;;
19343;SDS011;9808;52.402;16.678;2023-06-10T03:48:34;10.43;;;6.53;;
19343;SDS011;9808;52.402;16.678;2023-06-10T03:51:01;16.10;;;6.75;;
19343;SDS011;9808;52.402;16.678;2023-06-10T03:53:28;12.10;;;6.85;;
19343;SDS011;9808;52.402;16.678;2023-06-10T03:55:56;13.85;;;6.88;;
19343;SDS011;9808;52.402;16.678;2023-06-10T03:58:23;12.88;;;7.10;;
19343;SDS011;9808;52.402;16.678;2023-06-10T04:00:51;15.10;;;7.00;;
19343;SDS011;9808;52.402;16.678;2023-06-10T04:03:18;10.75;;;6.03;;
19343;SDS011;9808;52.402;16.678;2023-06-10T04:05:47;13.25;;;6.75;;
19343;SDS011;9808;52.402;16.678;2023-06-10T04:08:16;15.07;;;7.05;;
19343;SDS011;9808;52.402;16.678;2023-06-10T04:10:43;14.80;;;6.65;;
19343;SDS011;9808;52.402;16.678;2023-06-10T04:13:11;12.10;;;6.80;;
19343;SDS011;9808;52.402;16.678;2023-06-10T04:15:38;17.88;;;6.80;;
19343;SDS011;9808;52.402;16.678;2023-06-10T04:18:06;11.80;;;6.90;;
19343;SDS011;9808;52.402;16.678;2023-06-10T04:20:34;12.85;;;6.25;;
19343;SDS011;9808;52.402;16.678;2023-06-10T04:23:02;14.43;;;6.80;;
19343;SDS011;9808;52.402;16.678;2023-06-10T04:25:29;12.43;;;6.45;;
19343;SDS011;9808;52.402;16.678;2023-06-10T04:27:57;12.52;;;6.88;;
19343;SDS011;9808;52.402;16.678;2023-06-10T04:30:24;16.15;;;6.63;;
19343;SDS011;9808;52.402;16.678;2023-06-10T04:32:51;10.30;;;6.57;;
19343;SDS011;9808;52.402;16.678;2023-06-10T04:35:19;12.40;;;6.53;;
19343;SDS011;9808;52.402;16.678;2023-06-10T04:37:48;15.68;;;6.80;;
19343;SDS011;9808;52.402;16.678;2023-06-10T04:40:16;13.98;;;6.65;;
19343;SDS011;9808;52.402;16.678;2023-06-10T04:42:43;16.35;;;7.22;;
19343;SDS011;9808;52.402;16.678;2023-06-10T04:45:10;11.35;;;5.68;;
19343;SDS011;9808;52.402;16.678;2023-06-10T04:47:38;11.20;;;6.03;;
19343;SDS011;9808;52.402;16.678;2023-06-10T04:50:06;22.10;;;6.38;;
19343;SDS011;9808;52.402;16.678;2023-06-10T04:52:33;14.90;;;5.88;;
19343;SDS011;9808;52.402;16.678;2023-06-10T04:55:00;11.07;;;5.82;;
19343;SDS011;9808;52.402;16.678;2023-06-10T04:57:28;15.43;;;5.85;;
19343;SDS011;9808;52.402;16.678;2023-06-10T04:59:55;14.02;;;5.72;;
19343;SDS011;9808;52.402;16.678;2023-06-10T05:02:22;14.15;;;6.00;;
19343;SDS011;9808;52.402;16.678;2023-06-10T05:04:50;12.95;;;6.57;;
19343;SDS011;9808;52.402;16.678;2023-06-10T05:07:19;12.70;;;6.00;;
19343;SDS011;9808;52.402;16.678;2023-06-10T05:09:46;18.80;;;6.05;;
19343;SDS011;9808;52.402;16.678;2023-06-10T05:12:14;12.77;;;5.90;;
19343;SDS011;9808;52.402;16.678;2023-06-10T05:14:41;10.30;;;5.00;;
19343;SDS011;9808;52.402;16.678;2023-06-10T05:17:08;9.65;;;5.50;;
19343;SDS011;9808;52.402;16.678;2023-06-10T05:19:36;12.27;;;5.30;;
19343;SDS011;9808;52.402;16.678;2023-06-10T05:22:03;9.80;;;5.40;;
19343;SDS011;9808;52.402;16.678;2023-06-10T05:24:31;11.30;;;5.78;;
19343;SDS011;9808;52.402;16.678;2023-06-10T05:26:58;14.77;;;4.93;;
19343;SDS011;9808;52.402;16.678;2023-06-10T05:29:25;9.98;;;4.85;;
19343;SDS011;9808;52.402;16.678;2023-06-10T05:31:53;9.35;;;5.25;;
19343;SDS011;9808;52.402;16.678;2023-06-10T05:34:23;17.50;;;5.35;;
19343;SDS011;9808;52.402;16.678;2023-06-10T05:36:50;11.48;;;4.72;;
19343;SDS011;9808;52.402;16.678;2023-06-10T05:39:17;12.63;;;5.38;;
19343;SDS011;9808;52.402;16.678;2023-06-10T05:41:45;14.45;;;5.50;;
19343;SDS011;9808;52.402;16.678;2023-06-10T05:44:12;13.90;;;5.03;;
19343;SDS011;9808;52.402;16.678;2023-06-10T05:46:40;10.75;;;5.40;;
19343;SDS011;9808;52.402;16.678;2023-06-10T05:49:07;14.95;;;5.47;;
19343;SDS011;9808;52.402;16.678;2023-06-10T05:51:35;15.02;;;5.70;;
19343;SDS011;9808;52.402;16.678;2023-06-10T05:54:04;10.27;;;5.05;;
19343;SDS011;9808;52.402;16.678;2023-06-10T05:56:31;11.27;;;5.15;;
19343;SDS011;9808;52.402;16.678;2023-06-10T05:58:58;11.82;;;4.70;;
19343;SDS011;9808;52.402;16.678;2023-06-10T06:01:25;14.63;;;4.82;;
19343;SDS011;9808;52.402;16.678;2023-06-10T06:03:52;9.63;;;4.95;;
19343;SDS011;9808;52.402;16.678;2023-06-10T06:06:20;12.88;;;4.57;;
19343;SDS011;9808;52.402;16.678;2023-06-10T06:08:47;10.20;;;4.50;;
19343;SDS011;9808;52.402;16.678;2023-06-10T06:11:17;12.55;;;5.38;;
19343;SDS011;9808;52.402;16.678;2023-06-10T06:13:44;13.63;;;4.75;;
19343;SDS011;9808;52.402;16.678;2023-06-10T06:16:11;13.02;;;5.00;;
19343;SDS011;9808;52.402;16.678;2023-06-10T06:18:39;13.65;;;5.20;;
19343;SDS011;9808;52.402;16.678;2023-06-10T06:21:06;11.90;;;4.82;;
19343;SDS011;9808;52.402;16.678;2023-06-10T06:23:33;15.23;;;6.38;;
19343;SDS011;9808;52.402;16.678;2023-06-10T06:26:00;12.25;;;5.38;;
19343;SDS011;9808;52.402;16.678;2023-06-10T06:28:28;13.50;;;4.95;;
19343;SDS011;9808;52.402;16.678;2023-06-10T06:30:56;13.13;;;5.03;;
19343;SDS011;9808;52.402;16.678;2023-06-10T06:33:23;8.40;;;4.50;;
19343;SDS011;9808;52.402;16.678;2023-06-10T06:35:52;14.52;;;5.35;;
19343;SDS011;9808;52.402;16.678;2023-06-10T06:38:19;11.68;;;5.32;;
19343;SDS011;9808;52.402;16.678;2023-06-10T06:40:47;12.35;;;4.63;;
19343;SDS011;9808;52.402;16.678;2023-06-10T06:43:14;16.83;;;4.95;;
19343;SDS011;9808;52.402;16.678;2023-06-10T06:45:42;12.40;;;4.85;;
19343;SDS011;9808;52.402;16.678;2023-06-10T06:48:10;11.68;;;4.95;;
19343;SDS011;9808;52.402;16.678;2023-06-10T06:50:37;18.88;;;4.85;;
19343;SDS011;9808;52.402;16.678;2023-06-10T06:53:05;14.30;;;5.22;;
19343;SDS011;9808;52.402;16.678;2023-06-10T06:55:32;8.57;;;4.93;;
19343;SDS011;9808;52.402;16.678;2023-06-10T06:57:59;9.27;;;4.72;;
19343;SDS011;9808;52.402;16.678;2023-06-10T07:00:30;13.10;;;5.68;;
19343;SDS011;9808;52.402;16.678;2023-06-10T07:02:58;11.18;;;4.57;;
19343;SDS011;9808;52.402;16.678;2023-06-10T07:05:25;11.00;;;4.88;;
19343;SDS011;9808;52.402;16.678;2023-06-10T07:07:53;11.48;;;4.97;;
19343;SDS011;9808;52.402;16.678;2023-06-10T07:10:24;14.13;;;5.15;;
19343;SDS011;9808;52.402;16.678;2023-06-10T07:12:52;19.33;;;5.32;;
19343;SDS011;9808;52.402;16.678;2023-06-10T07:15:20;11.63;;;5.63;;
19343;SDS011;9808;52.402;16.678;2023-06-10T07:17:47;10.35;;;4.47;;
19343;SDS011;9808;52.402;16.678;2023-06-10T07:20:14;10.75;;;4.90;;
19343;SDS011;9808;52.402;16.678;2023-06-10T07:22:42;13.15;;;4.70;;
19343;SDS011;9808;52.402;16.678;2023-06-10T07:25:09;10.65;;;4.82;;
19343;SDS011;9808;52.402;16.678;2023-06-10T07:27:37;14.35;;;4.78;;
19343;SDS011;9808;52.402;16.678;2023-06-10T07:30:05;10.98;;;4.75;;
19343;SDS011;9808;52.402;16.678;2023-06-10T07:32:34;11.25;;;4.57;;
19343;SDS011;9808;52.402;16.678;2023-06-10T07:35:02;10.68;;;4.72;;
19343;SDS011;9808;52.402;16.678;2023-06-10T07:37:29;14.48;;;4.70;;
19343;SDS011;9808;52.402;16.678;2023-06-10T07:39:56;11.65;;;5.32;;
19343;SDS011;9808;52.402;16.678;2023-06-10T07:42:23;10.98;;;4.72;;
19343;SDS011;9808;52.402;16.678;2023-06-10T07:44:51;11.88;;;4.75;;
19343;SDS011;9808;52.402;16.678;2023-06-10T07:47:18;15.63;;;5.43;;
19343;SDS011;9808;52.402;16.678;2023-06-10T07:49:45;9.02;;;5.28;;
19343;SDS011;9808;52.402;16.678;2023-06-10T07:52:12;11.27;;;4.85;;
19343;SDS011;9808;52.402;16.678;2023-06-10T07:54:40;9.68;;;4.90;;
19343;SDS011;9808;52.402;16.678;2023-06-10T07:57:07;13.73;;;5.10;;
19343;SDS011;9808;52.402;16.678;2023-06-10T07:59:34;13.23;;;5.35;;
19343;SDS011;9808;52.402;16.678;2023-06-10T08:02:02;10.85;;;5.05;;
19343;SDS011;9808;52.402;16.678;2023-06-10T08:04:29;10.20;;;4.82;;
19343;SDS011;9808;52.402;16.678;2023-06-10T08:06:57;11.18;;;4.70;;
19343;SDS011;9808;52.402;16.678;2023-06-10T08:09:24;9.05;;;4.88;;
19343;SDS011;9808;52.402;16.678;2023-06-10T08:11:53;12.95;;;4.68;;
19343;SDS011;9808;52.402;16.678;2023-06-10T08:14:21;14.65;;;5.22;;
19343;SDS011;9808;52.402;16.678;2023-06-10T08:16:49;10.98;;;5.03;;
19343;SDS011;9808;52.402;16.678;2023-06-10T08:19:16;11.43;;;5.20;;
19343;SDS011;9808;52.402;16.678;2023-06-10T08:21:43;11.80;;;4.88;;
19343;SDS011;9808;52.402;16.678;2023-06-10T08:24:11;11.32;;;5.05;;
19343;SDS011;9808;52.402;16.678;2023-06-10T08:26:38;14.93;;;4.80;;
19343;SDS011;9808;52.402;16.678;2023-06-10T08:29:06;12.35;;;4.93;;
19343;SDS011;9808;52.402;16.678;2023-06-10T08:31:33;10.63;;;4.68;;
19343;SDS011;9808;52.402;16.678;2023-06-10T08:34:00;9.25;;;4.88;;
19343;SDS011;9808;52.402;16.678;2023-06-10T08:36:28;18.13;;;4.55;;
19343;SDS011;9808;52.402;16.678;2023-06-10T08:38:55;14.45;;;4.72;;
19343;SDS011;9808;52.402;16.678;2023-06-10T08:41:22;9.05;;;4.38;;
19343;SDS011;9808;52.402;16.678;2023-06-10T08:44:35;9.98;;;4.82;;
19343;SDS011;9808;52.402;16.678;2023-06-10T08:46:45;15.07;;;4.63;;
19343;SDS011;9808;52.402;16.678;2023-06-10T08:49:14;12.10;;;4.78;;
19343;SDS011;9808;52.402;16.678;2023-06-10T08:51:44;8.48;;;4.00;;
19343;SDS011;9808;52.402;16.678;2023-06-10T08:54:15;10.65;;;4.30;;
19343;SDS011;9808;52.402;16.678;2023-06-10T08:56:46;6.55;;;4.10;;
19343;SDS011;9808;52.402;16.678;2023-06-10T08:59:15;10.50;;;4.00;;
19343;SDS011;9808;52.402;16.678;2023-06-10T09:01:43;24.08;;;5.28;;
19343;SDS011;9808;52.402;16.678;2023-06-10T09:04:11;11.85;;;3.88;;
19343;SDS011;9808;52.402;16.678;2023-06-10T09:06:39;9.93;;;4.30;;
19343;SDS011;9808;52.402;16.678;2023-06-10T09:09:07;12.18;;;4.30;;
19343;SDS011;9808;52.402;16.678;2023-06-10T09:11:34;9.23;;;4.45;;
19343;SDS011;9808;52.402;16.678;2023-06-10T09:14:01;11.35;;;4.25;;
19343;SDS011;9808;52.402;16.678;2023-06-10T09:16:29;9.98;;;4.32;;
19343;SDS011;9808;52.402;16.678;2023-06-10T09:18:57;6.93;;;3.42;;
19343;SDS011;9808;52.402;16.678;2023-06-10T09:21:25;14.93;;;4.13;;
19343;SDS011;9808;52.402;16.678;2023-06-10T09:23:52;8.35;;;4.25;;
19343;SDS011;9808;52.402;16.678;2023-06-10T09:26:27;9.07;;;3.90;;
19343;SDS011;9808;52.402;16.678;2023-06-10T09:29:07;13.13;;;4.63;;
19343;SDS011;9808;52.402;16.678;2023-06-10T09:31:39;31.77;;;4.80;;
19343;SDS011;9808;52.402;16.678;2023-06-10T09:34:11;14.63;;;4.55;;
19343;SDS011;9808;52.402;16.678;2023-06-10T09:36:39;12.15;;;4.28;;
19343;SDS011;9808;52.402;16.678;2023-06-10T09:39:15;10.82;;;4.57;;
19343;SDS011;9808;52.402;16.678;2023-06-10T09:41:53;11.02;;;3.85;;
19343;SDS011;9808;52.402;16.678;2023-06-10T09:44:25;11.25;;;4.22;;
19343;SDS011;9808;52.402;16.678;2023-06-10T09:46:58;9.13;;;4.03;;
19343;SDS011;9808;52.402;16.678;2023-06-10T09:49:44;12.80;;;4.32;;
19343;SDS011;9808;52.402;16.678;2023-06-10T09:52:28;18.63;;;4.47;;
19343;SDS011;9808;52.402;16.678;2023-06-10T09:55:07;13.98;;;4.50;;
19343;SDS011;9808;52.402;16.678;2023-06-10T09:57:42;14.30;;;4.05;;
19343;SDS011;9808;52.402;16.678;2023-06-10T10:00:38;10.25;;;4.30;;
19343;SDS011;9808;52.402;16.678;2023-06-10T10:03:06;10.40;;;4.43;;
19343;SDS011;9808;52.402;16.678;2023-06-10T10:05:33;8.02;;;4.57;;
19343;SDS011;9808;52.402;16.678;2023-06-10T10:08:04;11.27;;;4.32;;
19343;SDS011;9808;52.402;16.678;2023-06-10T10:10:32;8.77;;;4.15;;
19343;SDS011;9808;52.402;16.678;2023-06-10T10:13:08;12.52;;;4.00;;
19343;SDS011;9808;52.402;16.678;2023-06-10T10:15:36;8.13;;;4.25;;
19343;SDS011;9808;52.402;16.678;2023-06-10T10:18:09;11.60;;;4.60;;
19343;SDS011;9808;52.402;16.678;2023-06-10T10:20:57;10.77;;;4.07;;
19343;SDS011;9808;52.402;16.678;2023-06-10T10:24:09;10.00;;;4.07;;
19343;SDS011;9808;52.402;16.678;2023-06-10T10:26:20;9.75;;;4.13;;
19343;SDS011;9808;52.402;16.678;2023-06-10T10:28:53;10.27;;;4.50;;
19343;SDS011;9808;52.402;16.678;2023-06-10T10:31:28;11.13;;;4.75;;
19343;SDS011;9808;52.402;16.678;2023-06-10T10:34:00;10.07;;;4.75;;
19343;SDS011;9808;52.402;16.678;2023-06-10T10:36:30;11.10;;;4.60;;
19343;SDS011;9808;52.402;16.678;2023-06-10T10:38:57;10.60;;;4.55;;
19343;SDS011;9808;52.402;16.678;2023-06-10T10:41:31;10.68;;;4.63;;
19343;SDS011;9808;52.402;16.678;2023-06-10T10:44:13;10.27;;;4.28;;
19343;SDS011;9808;52.402;16.678;2023-06-10T10:46:59;8.45;;;4.47;;
19343;SDS011;9808;52.402;16.678;2023-06-10T10:49:31;8.48;;;4.30;;
19343;SDS011;9808;52.402;16.678;2023-06-10T10:52:10;9.35;;;3.95;;
19343;SDS011;9808;52.402;16.678;2023-06-10T10:54:39;10.43;;;4.25;;
19343;SDS011;9808;52.402;16.678;2023-06-10T10:57:22;9.23;;;3.97;;
19343;SDS011;9808;52.402;16.678;2023-06-10T10:59:55;8.93;;;3.78;;
19343;SDS011;9808;52.402;16.678;2023-06-10T11:02:37;7.32;;;4.30;;
19343;SDS011;9808;52.402;16.678;2023-06-10T11:10:59;7.18;;;3.92;;
19343;SDS011;9808;52.402;16.678;2023-06-10T11:13:27;8.90;;;4.00;;
19343;SDS011;9808;52.402;16.678;2023-06-10T11:15:57;13.30;;;4.88;;
19343;SDS011;9808;52.402;16.678;2023-06-10T11:18:24;11.55;;;5.00;;
19343;SDS011;9808;52.402;16.678;2023-06-10T11:20:53;10.90;;;4.28;;
19343;SDS011;9808;52.402;16.678;2023-06-10T11:28:41;12.07;;;4.13;;
19343;SDS011;9808;52.402;16.678;2023-06-10T11:31:12;13.82;;;4.65;;
19343;SDS011;9808;52.402;16.678;2023-06-10T11:33:46;9.75;;;4.00;;
19343;SDS011;9808;52.402;16.678;2023-06-10T11:36:14;17.38;;;4.55;;
19343;SDS011;9808;52.402;16.678;2023-06-10T11:38:42;6.50;;;3.80;;
19343;SDS011;9808;52.402;16.678;2023-06-10T11:41:10;7.22;;;3.95;;
19343;SDS011;9808;52.402;16.678;2023-06-10T11:43:44;15.75;;;4.60;;
19343;SDS011;9808;52.402;16.678;2023-06-10T11:46:14;11.40;;;4.63;;
19343;SDS011;9808;52.402;16.678;2023-06-10T11:48:48;8.85;;;4.63;;
19343;SDS011;9808;52.402;16.678;2023-06-10T11:51:16;7.30;;;4.03;;
19343;SDS011;9808;52.402;16.678;2023-06-10T11:53:53;6.82;;;3.97;;
19343;SDS011;9808;52.402;16.678;2023-06-10T11:56:20;9.40;;;4.07;;
19343;SDS011;9808;52.402;16.678;2023-06-10T11:58:55;8.90;;;4.45;;
19343;SDS011;9808;52.402;16.678;2023-06-10T12:01:25;9.63;;;4.22;;
19343;SDS011;9808;52.402;16.678;2023-06-10T12:04:02;10.52;;;4.35;;
19343;SDS011;9808;52.402;16.678;2023-06-10T12:06:43;7.97;;;4.13;;
19343;SDS011;9808;52.402;16.678;2023-06-10T12:09:29;10.02;;;4.30;;
19343;SDS011;9808;52.402;16.678;2023-06-10T12:12:05;6.60;;;4.35;;
19343;SDS011;9808;52.402;16.678;2023-06-10T12:20:01;12.05;;;4.03;;
19343;SDS011;9808;52.402;16.678;2023-06-10T12:22:36;8.55;;;4.53;;
19343;SDS011;9808;52.402;16.678;2023-06-10T12:25:04;6.53;;;3.90;;
19343;SDS011;9808;52.402;16.678;2023-06-10T12:27:33;9.77;;;4.20;;
19343;SDS011;9808;52.402;16.678;2023-06-10T12:30:01;8.98;;;4.43;;
19343;SDS011;9808;52.402;16.678;2023-06-10T12:32:43;11.55;;;4.13;;
19343;SDS011;9808;52.402;16.678;2023-06-10T12:35:12;9.63;;;3.67;;
19343;SDS011;9808;52.402;16.678;2023-06-10T12:37:40;8.52;;;4.20;;
19343;SDS011;9808;52.402;16.678;2023-06-10T12:40:09;7.65;;;3.53;;
19343;SDS011;9808;52.402;16.678;2023-06-10T12:42:37;17.92;;;4.57;;
19343;SDS011;9808;52.402;16.678;2023-06-10T12:45:04;8.65;;;3.78;;
19343;SDS011;9808;52.402;16.678;2023-06-10T12:47:35;15.80;;;3.80;;
19343;SDS011;9808;52.402;16.678;2023-06-10T12:50:04;13.02;;;4.47;;
19343;SDS011;9808;52.402;16.678;2023-06-10T12:52:32;11.02;;;4.25;;
19343;SDS011;9808;52.402;16.678;2023-06-10T12:55:00;9.23;;;3.80;;
19343;SDS011;9808;52.402;16.678;2023-06-10T12:57:27;12.38;;;3.88;;
19343;SDS011;9808;52.402;16.678;2023-06-10T12:59:56;7.97;;;3.75;;
19343;SDS011;9808;52.402;16.678;2023-06-10T13:02:30;10.35;;;4.20;;
19343;SDS011;9808;52.402;16.678;2023-06-10T13:04:58;6.13;;;3.67;;
19343;SDS011;9808;52.402;16.678;2023-06-10T13:07:25;6.35;;;3.97;;
19343;SDS011;9808;52.402;16.678;2023-06-10T13:09:52;10.40;;;3.95;;
19343;SDS011;9808;52.402;16.678;2023-06-10T13:12:20;8.77;;;4.22;;
19343;SDS011;9808;52.402;16.678;2023-06-10T13:15:08;9.93;;;3.90;;
19343;SDS011;9808;52.402;16.678;2023-06-10T13:17:37;13.65;;;3.60;;
19343;SDS011;9808;52.402;16.678;2023-06-10T13:20:06;6.53;;;3.65;;
19343;SDS011;9808;52.402;16.678;2023-06-10T13:22:34;17.73;;;4.07;;
19343;SDS011;9808;52.402;16.678;2023-06-10T13:25:03;11.88;;;4.57;;
19343;SDS011;9808;52.402;16.678;2023-06-10T13:27:31;9.10;;;4.55;;
19343;SDS011;9808;52.402;16.678;2023-06-10T13:29:59;12.00;;;3.75;;
19343;SDS011;9808;52.402;16.678;2023-06-10T13:32:26;10.35;;;3.60;;
19343;SDS011;9808;52.402;16.678;2023-06-10T13:34:53;10.80;;;4.13;;
19343;SDS011;9808;52.402;16.678;2023-06-10T13:37:21;6.30;;;3.45;;
19343;SDS011;9808;52.402;16.678;2023-06-10T13:39:48;7.97;;;3.75;;
19343;SDS011;9808;52.402;16.678;2023-06-10T13:42:17;10.30;;;3.92;;
19343;SDS011;9808;52.402;16.678;2023-06-10T13:44:44;8.43;;;3.63;;
19343;SDS011;9808;52.402;16.678;2023-06-10T13:47:14;6.82;;;3.53;;
19343;SDS011;9808;52.402;16.678;2023-06-10T13:49:41;8.23;;;3.60;;
19343;SDS011;9808;52.402;16.678;2023-06-10T13:52:08;11.23;;;3.75;;
19343;SDS011;9808;52.402;16.678;2023-06-10T13:54:38;6.60;;;3.33;;
19343;SDS011;9808;52.402;16.678;2023-06-10T13:57:05;6.57;;;3.30;;
19343;SDS011;9808;52.402;16.678;2023-06-10T13:59:35;8.15;;;3.58;;
19343;SDS011;9808;52.402;16.678;2023-06-10T14:02:04;10.38;;;3.45;;
19343;SDS011;9808;52.402;16.678;2023-06-10T14:04:32;7.18;;;3.30;;
19343;SDS011;9808;52.402;16.678;2023-06-10T14:06:59;7.00;;;3.70;;
19343;SDS011;9808;52.402;16.678;2023-06-10T14:09:29;6.40;;;3.33;;
19343;SDS011;9808;52.402;16.678;2023-06-10T14:11:57;4.82;;;2.80;;
19343;SDS011;9808;52.402;16.678;2023-06-10T14:14:24;13.95;;;3.88;;
19343;SDS011;9808;52.402;16.678;2023-06-10T14:16:52;13.50;;;3.50;;
19343;SDS011;9808;52.402;16.678;2023-06-10T14:19:20;10.65;;;3.60;;
19343;SDS011;9808;52.402;16.678;2023-06-10T14:21:47;7.75;;;3.78;;
19343;SDS011;9808;52.402;16.678;2023-06-10T14:24:16;6.63;;;3.38;;
19343;SDS011;9808;52.402;16.678;2023-06-10T14:26:43;11.90;;;3.60;;
19343;SDS011;9808;52.402;16.678;2023-06-10T14:29:10;6.40;;;3.33;;
19343;SDS011;9808;52.402;16.678;2023-06-10T14:31:40;12.15;;;3.15;;
19343;SDS011;9808;52.402;16.678;2023-06-10T14:34:08;8.07;;;3.20;;
19343;SDS011;9808;52.402;16.678;2023-06-10T14:36:35;7.63;;;3.53;;
19343;SDS011;9808;52.402;16.678;2023-06-10T14:39:06;6.38;;;2.75;;
19343;SDS011;9808;52.402;16.678;2023-06-10T14:41:33;9.23;;;3.15;;
19343;SDS011;9808;52.402;16.678;2023-06-10T14:44:00;8.82;;;3.53;;
19343;SDS011;9808;52.402;16.678;2023-06-10T14:46:28;10.02;;;3.92;;
19343;SDS011;9808;52.402;16.678;2023-06-10T14:48:55;7.38;;;3.38;;
19343;SDS011;9808;52.402;16.678;2023-06-10T14:51:23;7.30;;;3.22;;
19343;SDS011;9808;52.402;16.678;2023-06-10T14:53:50;7.93;;;3.33;;
19343;SDS011;9808;52.402;16.678;2023-06-10T14:56:17;8.40;;;3.75;;
19343;SDS011;9808;52.402;16.678;2023-06-10T14:58:45;12.07;;;3.33;;
19343;SDS011;9808;52.402;16.678;2023-06-10T15:01:12;6.28;;;3.53;;
19343;SDS011;9808;52.402;16.678;2023-06-10T15:03:39;7.68;;;2.83;;
19343;SDS011;9808;52.402;16.678;2023-06-10T15:06:07;6.97;;;3.50;;